Time;durP1;ratioP1;P1;durP2;ratioP2;P2;SDS_P1;SDS_P2;PMS_P1;PMS_P2;Temp;Humidity;BMP_temperature;BMP_pressure;BME280_temperature;BME280_humidity;BME280_pressure;Samples;Min_cycle;Max_cycle;Signal;HPM_P1;HPM_P2
2021/12/22 00:02:14;;;;;;;20.03;11.63;;;;;;;;;;5003256;28;20199;-76
2021/12/22 00:04:44;;;;;;;13.87;10.37;;;;;;;;;;5010042;28;20270;-77
2021/12/22 00:07:10;;;;;;;19.47;9.93;;;;;;;;;;5009189;28;20194;-76
2021/12/22 00:09:35;;;;;;;18.90;11.93;;;;;;;;;;5008751;28;20183;-76
2021/12/22 00:12:01;;;;;;;15.50;11.33;;;;;;;;;;5008172;28;20194;-76
2021/12/22 00:14:26;;;;;;;13.93;9.93;;;;;;;;;;5008437;28;20185;-77
2021/12/22 00:16:51;;;;;;;18.30;9.90;;;;;;;;;;5007756;28;20219;-77
2021/12/22 00:19:16;;;;;;;18.40;11.00;;;;;;;;;;5008824;28;20214;-76
2021/12/22 00:21:42;;;;;;;16.43;10.27;;;;;;;;;;5008328;28;20198;-76
2021/12/22 00:24:07;;;;;;;15.10;9.53;;;;;;;;;;5008551;28;20206;-76
2021/12/22 00:26:32;;;;;;;15.07;10.10;;;;;;;;;;5008028;28;20175;-76
2021/12/22 00:28:57;;;;;;;16.77;10.30;;;;;;;;;;5007277;28;20187;-77
2021/12/22 00:31:23;;;;;;;15.53;9.40;;;;;;;;;;5008184;28;20480;-76
2021/12/22 00:33:50;;;;;;;17.97;9.90;;;;;;;;;;5008387;28;20179;-77
2021/12/22 00:36:17;;;;;;;15.57;10.47;;;;;;;;;;5012110;28;20214;-76
2021/12/22 00:38:43;;;;;;;16.60;10.53;;;;;;;;;;5011068;28;20222;-77
2021/12/22 00:41:08;;;;;;;16.00;10.37;;;;;;;;;;5012170;28;20230;-77
2021/12/22 00:43:34;;;;;;;14.57;9.93;;;;;;;;;;5044688;28;20229;-76
2021/12/22 00:45:59;;;;;;;16.60;10.57;;;;;;;;;;5035570;28;20182;-77
2021/12/22 00:48:24;;;;;;;12.83;8.93;;;;;;;;;;5036005;28;20166;-77
2021/12/22 00:50:49;;;;;;;18.90;10.67;;;;;;;;;;5035856;28;20178;-77
2021/12/22 00:53:14;;;;;;;20.73;12.57;;;;;;;;;;5036477;28;20311;-76
2021/12/22 00:55:40;;;;;;;15.33;10.77;;;;;;;;;;5053036;28;20177;-76
2021/12/22 00:58:05;;;;;;;17.90;10.10;;;;;;;;;;5035158;28;20337;-77
2021/12/22 01:00:31;;;;;;;16.37;10.10;;;;;;;;;;5033913;28;20170;-77
2021/12/22 01:02:56;;;;;;;17.73;10.80;;;;;;;;;;5052616;28;20182;-76
2021/12/22 01:05:21;;;;;;;16.97;11.73;;;;;;;;;;5042521;28;20174;-76
2021/12/22 01:07:48;;;;;;;23.43;12.77;;;;;;;;;;5036887;28;20190;-76
2021/12/22 01:10:15;;;;;;;18.63;10.17;;;;;;;;;;5030435;28;20186;-77
2021/12/22 01:12:40;;;;;;;19.10;11.37;;;;;;;;;;5038738;28;20231;-77
2021/12/22 01:15:06;;;;;;;18.27;11.27;;;;;;;;;;5050266;28;20178;-77
2021/12/22 01:17:38;;;;;;;16.17;10.97;;;;;;;;;;5030633;28;20203;-76
2021/12/22 01:20:10;;;;;;;19.40;11.20;;;;;;;;;;5045475;28;20176;-76
2021/12/22 01:22:47;;;;;;;18.23;10.97;;;;;;;;;;5039972;28;20174;-77
2021/12/22 01:25:15;;;;;;;16.07;10.43;;;;;;;;;;5050882;28;20239;-77
2021/12/22 01:27:42;;;;;;;17.50;10.73;;;;;;;;;;5052134;28;20188;-77
2021/12/22 01:30:08;;;;;;;17.97;12.33;;;;;;;;;;5049832;28;20180;-76
2021/12/22 01:32:33;;;;;;;17.90;11.83;;;;;;;;;;5043807;28;20265;-76
2021/12/22 01:34:58;;;;;;;20.30;12.87;;;;;;;;;;5034308;28;20186;-77
2021/12/22 01:37:24;;;;;;;19.93;12.00;;;;;;;;;;5038151;28;20289;-77
2021/12/22 01:39:49;;;;;;;16.23;10.00;;;;;;;;;;5052231;28;20174;-76
2021/12/22 01:42:14;;;;;;;16.70;10.20;;;;;;;;;;5051690;28;20222;-76
2021/12/22 01:45:00;;;;;;;21.47;12.37;;;;;;;;;;5034742;28;20205;-77
2021/12/22 01:50:10;;;;;;;21.67;12.17;;;;;;;;;;5050460;28;20225;-76
2021/12/22 01:52:36;;;;;;;15.53;10.63;;;;;;;;;;5042762;28;20233;-77
2021/12/22 01:55:07;;;;;;;23.30;13.43;;;;;;;;;;5037687;28;20217;-76
2021/12/22 01:57:34;;;;;;;20.73;12.00;;;;;;;;;;5046170;28;20187;-76
2021/12/22 02:00:02;;;;;;;20.50;12.97;;;;;;;;;;5040717;28;20170;-77
2021/12/22 02:02:28;;;;;;;18.87;12.93;;;;;;;;;;5051721;28;20170;-77
2021/12/22 02:04:53;;;;;;;19.17;12.77;;;;;;;;;;5033633;28;20170;-77
2021/12/22 02:07:18;;;;;;;21.53;11.80;;;;;;;;;;5036351;28;20376;-76
2021/12/22 02:12:15;;;;;;;23.07;12.87;;;;;;;;;;5051066;28;20174;-76
2021/12/22 02:14:41;;;;;;;23.00;12.40;;;;;;;;;;5037623;28;20207;-76
2021/12/22 02:17:09;;;;;;;18.67;12.33;;;;;;;;;;5051259;28;20212;-77
2021/12/22 02:19:36;;;;;;;20.50;10.93;;;;;;;;;;5049303;28;20177;-77
2021/12/22 02:22:07;;;;;;;21.00;12.17;;;;;;;;;;5035150;28;20201;-76
2021/12/22 02:24:32;;;;;;;16.53;10.67;;;;;;;;;;5036150;28;20169;-76
2021/12/22 02:27:04;;;;;;;18.83;10.23;;;;;;;;;;5033475;28;20184;-76
2021/12/22 02:29:38;;;;;;;19.37;12.83;;;;;;;;;;5033354;28;20182;-76
2021/12/22 02:32:13;;;;;;;16.60;10.60;;;;;;;;;;5033947;28;20178;-76
2021/12/22 02:34:45;;;;;;;17.03;10.47;;;;;;;;;;5034005;28;20186;-76
2021/12/22 02:37:13;;;;;;;19.97;11.33;;;;;;;;;;5042993;28;20208;-76
2021/12/22 02:39:58;;;;;;;22.63;11.30;;;;;;;;;;5036295;28;20182;-77
2021/12/22 02:42:26;;;;;;;19.07;11.47;;;;;;;;;;5020396;28;20223;-76
2021/12/22 02:44:51;;;;;;;17.53;11.33;;;;;;;;;;5013463;28;20233;-77
2021/12/22 02:47:20;;;;;;;18.67;12.23;;;;;;;;;;5012913;28;20179;-76
2021/12/22 02:49:46;;;;;;;21.57;11.60;;;;;;;;;;5019033;28;20190;-77
2021/12/22 02:52:11;;;;;;;21.93;11.77;;;;;;;;;;5011596;28;20179;-77
2021/12/22 02:54:43;;;;;;;18.13;10.47;;;;;;;;;;5010040;28;20191;-77
2021/12/22 02:57:22;;;;;;;14.53;10.57;;;;;;;;;;5010401;28;20253;-76
2021/12/22 03:00:47;;;;;;;16.40;10.97;;;;;;;;;;5006303;28;20202;-76
2021/12/22 03:05:24;;;;;;;18.10;10.53;;;;;;;;;;4989171;28;20209;-76
2021/12/22 03:07:50;;;;;;;15.83;10.90;;;;;;;;;;5009168;28;20210;-76
2021/12/22 03:10:17;;;;;;;21.13;12.47;;;;;;;;;;5012182;28;20275;-76
2021/12/22 03:12:43;;;;;;;18.97;11.73;;;;;;;;;;5009406;28;20179;-77
2021/12/22 03:15:09;;;;;;;17.57;11.20;;;;;;;;;;5007469;28;20187;-76
2021/12/22 03:17:35;;;;;;;21.40;12.73;;;;;;;;;;5008383;28;20294;-76
2021/12/22 03:20:01;;;;;;;18.20;11.33;;;;;;;;;;5007791;28;20214;-76
2021/12/22 03:22:28;;;;;;;14.80;8.33;;;;;;;;;;5012742;28;20175;-76
2021/12/22 03:24:53;;;;;;;20.70;11.77;;;;;;;;;;5011097;28;20171;-76
2021/12/22 03:27:23;;;;;;;21.30;10.73;;;;;;;;;;5008909;28;20179;-76
2021/12/22 03:29:48;;;;;;;25.40;13.97;;;;;;;;;;5007645;28;20191;-77
2021/12/22 03:32:13;;;;;;;19.67;12.27;;;;;;;;;;5009860;28;20186;-76
2021/12/22 03:34:39;;;;;;;18.57;10.83;;;;;;;;;;5010497;28;20183;-76
2021/12/22 03:37:05;;;;;;;20.20;11.80;;;;;;;;;;5013847;28;20341;-76
2021/12/22 03:39:30;;;;;;;16.50;9.63;;;;;;;;;;5010152;28;20245;-77
2021/12/22 03:41:56;;;;;;;13.70;9.30;;;;;;;;;;5013611;28;20773;-76
2021/12/22 03:44:21;;;;;;;20.70;12.30;;;;;;;;;;5032580;28;20178;-77
2021/12/22 03:46:46;;;;;;;17.53;11.17;;;;;;;;;;5034620;28;20268;-77
2021/12/22 03:49:13;;;;;;;20.53;12.20;;;;;;;;;;5049370;28;20169;-76
2021/12/22 03:51:38;;;;;;;21.70;13.57;;;;;;;;;;5034042;28;20178;-76
2021/12/22 03:54:08;;;;;;;18.20;11.20;;;;;;;;;;5040247;28;20185;-76
2021/12/22 03:56:33;;;;;;;21.87;13.03;;;;;;;;;;5031812;28;20214;-76
2021/12/22 03:58:58;;;;;;;18.27;11.23;;;;;;;;;;5049569;28;20172;-76
2021/12/22 04:01:23;;;;;;;18.83;12.03;;;;;;;;;;5033341;28;20189;-76
2021/12/22 04:03:53;;;;;;;16.67;10.57;;;;;;;;;;5049249;28;20177;-76
2021/12/22 04:06:18;;;;;;;20.37;11.97;;;;;;;;;;5049380;28;20462;-76
2021/12/22 04:08:43;;;;;;;18.73;12.70;;;;;;;;;;5034083;28;20182;-77
2021/12/22 04:11:08;;;;;;;23.00;11.93;;;;;;;;;;5040324;28;20200;-76
2021/12/22 04:13:34;;;;;;;17.97;11.57;;;;;;;;;;5031168;28;20194;-76
2021/12/22 04:15:59;;;;;;;20.90;13.00;;;;;;;;;;5041321;28;20174;-76
2021/12/22 04:18:24;;;;;;;22.63;12.40;;;;;;;;;;5031685;28;20206;-76
2021/12/22 04:20:49;;;;;;;18.70;10.63;;;;;;;;;;5032501;28;20207;-76
2021/12/22 04:23:15;;;;;;;18.80;11.17;;;;;;;;;;5049320;28;20174;-76
2021/12/22 04:25:40;;;;;;;20.63;12.73;;;;;;;;;;5031043;28;20273;-76
2021/12/22 04:28:08;;;;;;;23.50;12.23;;;;;;;;;;5031667;28;20177;-76
2021/12/22 04:30:35;;;;;;;20.93;12.20;;;;;;;;;;5031609;28;20174;-76
2021/12/22 04:33:01;;;;;;;24.33;12.63;;;;;;;;;;5028423;28;20500;-76
2021/12/22 04:35:26;;;;;;;20.43;13.10;;;;;;;;;;5034197;28;20174;-76
2021/12/22 04:37:51;;;;;;;20.57;13.37;;;;;;;;;;5030781;28;20212;-76
2021/12/22 04:40:17;;;;;;;21.40;12.17;;;;;;;;;;5035579;28;20459;-77
2021/12/22 04:42:42;;;;;;;21.50;12.90;;;;;;;;;;5035370;28;20233;-76
2021/12/22 04:45:08;;;;;;;21.27;13.00;;;;;;;;;;5035341;28;20178;-76
2021/12/22 04:47:34;;;;;;;18.10;11.50;;;;;;;;;;5034520;28;20186;-76
2021/12/22 04:50:03;;;;;;;18.33;11.03;;;;;;;;;;5036136;28;20205;-77
2021/12/22 04:52:38;;;;;;;17.30;11.17;;;;;;;;;;5031606;28;20175;-76
2021/12/22 04:55:04;;;;;;;17.43;11.43;;;;;;;;;;5037678;28;20173;-76
2021/12/22 04:57:30;;;;;;;25.13;14.27;;;;;;;;;;5030456;28;20214;-76
2021/12/22 04:59:55;;;;;;;23.70;13.37;;;;;;;;;;5039730;28;20236;-76
2021/12/22 05:02:21;;;;;;;25.20;12.13;;;;;;;;;;5048253;28;20171;-76
2021/12/22 05:04:46;;;;;;;23.83;13.77;;;;;;;;;;5031676;28;20184;-77
2021/12/22 05:07:11;;;;;;;21.63;13.53;;;;;;;;;;5038464;28;20239;-76
2021/12/22 05:09:36;;;;;;;18.43;12.90;;;;;;;;;;5042995;28;20182;-76
2021/12/22 05:12:02;;;;;;;20.20;12.33;;;;;;;;;;5031895;28;20185;-76
2021/12/22 05:14:27;;;;;;;26.53;13.23;;;;;;;;;;5032946;28;20182;-76
2021/12/22 05:16:58;;;;;;;22.13;13.70;;;;;;;;;;5051217;28;20196;-76
2021/12/22 05:19:24;;;;;;;23.07;13.53;;;;;;;;;;5034763;28;20265;-75
2021/12/22 05:21:49;;;;;;;22.40;12.10;;;;;;;;;;5049625;28;20260;-75
2021/12/22 05:24:14;;;;;;;20.77;13.03;;;;;;;;;;5034878;28;20173;-75
2021/12/22 05:26:39;;;;;;;24.23;13.67;;;;;;;;;;5032918;28;20182;-75
2021/12/22 05:29:05;;;;;;;25.30;13.67;;;;;;;;;;5045558;28;20256;-75
2021/12/22 05:31:30;;;;;;;45.60;26.73;;;;;;;;;;5047024;28;20174;-75
2021/12/22 05:33:56;;;;;;;25.57;13.60;;;;;;;;;;5034167;28;20426;-75
2021/12/22 05:36:22;;;;;;;26.70;14.73;;;;;;;;;;5034910;28;20181;-77
2021/12/22 05:38:47;;;;;;;21.73;12.57;;;;;;;;;;5036658;28;20182;-78
2021/12/22 05:41:12;;;;;;;22.30;13.03;;;;;;;;;;5032978;28;20224;-77
2021/12/22 05:43:37;;;;;;;21.93;13.00;;;;;;;;;;5017370;28;20426;-77
2021/12/22 05:46:03;;;;;;;21.03;13.57;;;;;;;;;;5013192;28;20175;-77
2021/12/22 05:48:28;;;;;;;27.33;14.80;;;;;;;;;;5012183;28;20221;-77
2021/12/22 05:50:57;;;;;;;27.43;15.03;;;;;;;;;;5016379;28;20198;-77
2021/12/22 05:53:22;;;;;;;28.93;16.97;;;;;;;;;;5018450;28;20242;-77
2021/12/22 05:55:48;;;;;;;21.10;12.83;;;;;;;;;;5015033;28;20301;-77
2021/12/22 05:58:13;;;;;;;24.90;15.20;;;;;;;;;;5014257;28;20290;-77
2021/12/22 06:00:38;;;;;;;29.07;18.40;;;;;;;;;;5009138;28;20242;-77
2021/12/22 06:03:03;;;;;;;24.77;13.57;;;;;;;;;;5009357;28;20183;-77
2021/12/22 06:05:28;;;;;;;21.63;14.27;;;;;;;;;;5013453;28;20172;-77
2021/12/22 06:07:54;;;;;;;23.43;13.73;;;;;;;;;;5009005;28;20192;-77
2021/12/22 06:10:19;;;;;;;21.17;12.50;;;;;;;;;;5010226;28;20180;-77
2021/12/22 06:12:44;;;;;;;24.50;14.43;;;;;;;;;;5010403;28;20238;-77
2021/12/22 06:15:09;;;;;;;27.27;14.57;;;;;;;;;;5013717;28;20217;-78
2021/12/22 06:17:35;;;;;;;24.10;14.83;;;;;;;;;;5012827;28;20199;-79
2021/12/22 06:20:01;;;;;;;24.63;16.23;;;;;;;;;;5012252;28;20175;-79
2021/12/22 06:22:28;;;;;;;21.47;12.43;;;;;;;;;;5014859;28;20246;-79
2021/12/22 06:24:54;;;;;;;30.83;16.03;;;;;;;;;;5017654;28;20235;-79
2021/12/22 06:27:19;;;;;;;22.20;13.87;;;;;;;;;;5012212;28;20184;-79
2021/12/22 06:29:44;;;;;;;28.30;13.97;;;;;;;;;;5017078;28;20183;-79
2021/12/22 06:32:09;;;;;;;21.23;13.77;;;;;;;;;;5013468;28;20263;-78
2021/12/22 06:34:34;;;;;;;23.50;13.10;;;;;;;;;;5009911;28;20214;-79
2021/12/22 06:37:00;;;;;;;22.03;13.67;;;;;;;;;;5017854;28;20290;-79
2021/12/22 06:39:25;;;;;;;22.63;13.33;;;;;;;;;;5011134;28;20272;-79
2021/12/22 06:41:50;;;;;;;25.30;15.77;;;;;;;;;;5013562;28;20179;-79
2021/12/22 06:44:16;;;;;;;24.47;14.53;;;;;;;;;;5036593;28;20174;-78
2021/12/22 06:46:41;;;;;;;23.87;15.77;;;;;;;;;;5033576;28;20185;-78
2021/12/22 06:49:07;;;;;;;24.80;15.67;;;;;;;;;;5034744;28;20178;-79
2021/12/22 06:51:32;;;;;;;23.87;17.53;;;;;;;;;;5033660;28;20209;-79
2021/12/22 06:53:59;;;;;;;22.57;14.90;;;;;;;;;;5034575;28;20186;-78
2021/12/22 06:56:25;;;;;;;26.90;15.10;;;;;;;;;;5033989;28;20395;-79
2021/12/22 06:58:50;;;;;;;30.10;17.40;;;;;;;;;;5036719;28;20186;-79
2021/12/22 07:01:18;;;;;;;27.87;16.83;;;;;;;;;;5035646;28;20182;-79
2021/12/22 07:03:44;;;;;;;25.87;15.27;;;;;;;;;;5033624;28;20166;-78
2021/12/22 07:06:09;;;;;;;23.77;14.83;;;;;;;;;;5050253;28;20246;-79
2021/12/22 07:08:34;;;;;;;26.90;16.17;;;;;;;;;;5035863;28;20237;-79
2021/12/22 07:11:00;;;;;;;21.00;12.47;;;;;;;;;;5037298;28;20194;-78
2021/12/22 07:13:25;;;;;;;23.90;14.50;;;;;;;;;;5050105;28;20236;-79
2021/12/22 07:15:51;;;;;;;25.30;14.87;;;;;;;;;;5039605;28;20186;-79
2021/12/22 07:18:16;;;;;;;26.40;15.00;;;;;;;;;;5032871;28;20202;-79
2021/12/22 07:20:41;;;;;;;27.83;15.83;;;;;;;;;;5034093;28;20190;-79
2021/12/22 07:23:07;;;;;;;21.67;11.57;;;;;;;;;;5032892;28;20178;-79
2021/12/22 07:25:32;;;;;;;25.03;14.67;;;;;;;;;;5036507;28;20185;-79
2021/12/22 07:27:57;;;;;;;24.20;16.53;;;;;;;;;;5032703;28;20178;-79
2021/12/22 07:30:23;;;;;;;25.67;16.23;;;;;;;;;;5033566;28;20265;-79
2021/12/22 07:32:48;;;;;;;23.33;14.33;;;;;;;;;;5040662;28;20181;-79
2021/12/22 07:35:14;;;;;;;25.73;16.53;;;;;;;;;;5035697;28;20186;-78
2021/12/22 07:37:39;;;;;;;30.27;17.87;;;;;;;;;;5046388;28;20194;-79
2021/12/22 07:40:06;;;;;;;27.43;16.30;;;;;;;;;;5051106;28;20169;-79
2021/12/22 07:42:31;;;;;;;26.33;14.20;;;;;;;;;;5043002;28;20246;-79
2021/12/22 07:44:57;;;;;;;25.63;15.57;;;;;;;;;;5047344;28;20209;-78
2021/12/22 07:47:22;;;;;;;27.80;16.53;;;;;;;;;;5033833;28;20186;-79
2021/12/22 07:49:47;;;;;;;27.37;17.00;;;;;;;;;;5057090;28;20208;-79
2021/12/22 07:52:12;;;;;;;27.03;16.47;;;;;;;;;;5036590;28;20239;-79
2021/12/22 07:54:39;;;;;;;20.97;12.53;;;;;;;;;;5033769;28;20193;-78
2021/12/22 07:57:04;;;;;;;24.87;13.70;;;;;;;;;;5033932;28;20193;-79
2021/12/22 07:59:30;;;;;;;28.07;15.77;;;;;;;;;;5034605;28;20256;-78
2021/12/22 08:01:56;;;;;;;27.87;17.23;;;;;;;;;;5051154;28;20205;-79
2021/12/22 08:04:21;;;;;;;36.17;18.40;;;;;;;;;;5032882;28;20500;-79
2021/12/22 08:06:47;;;;;;;33.73;20.43;;;;;;;;;;5037642;28;20228;-79
2021/12/22 08:09:12;;;;;;;30.83;18.07;;;;;;;;;;5036909;28;20182;-78
2021/12/22 08:11:37;;;;;;;43.57;24.50;;;;;;;;;;5032690;28;20193;-78
2021/12/22 08:14:02;;;;;;;31.80;19.27;;;;;;;;;;5035809;28;20177;-76
2021/12/22 08:16:27;;;;;;;28.70;16.10;;;;;;;;;;5038800;28;20185;-79
2021/12/22 08:18:53;;;;;;;28.70;16.40;;;;;;;;;;5037937;28;20259;-78
2021/12/22 08:21:18;;;;;;;28.67;15.57;;;;;;;;;;5032736;28;20174;-79
2021/12/22 08:23:43;;;;;;;31.03;18.20;;;;;;;;;;5034824;28;20185;-78
2021/12/22 08:26:08;;;;;;;27.67;15.90;;;;;;;;;;5034456;28;20169;-78
2021/12/22 08:28:33;;;;;;;26.13;14.13;;;;;;;;;;5026168;28;20231;-78
2021/12/22 08:31:02;;;;;;;32.73;17.63;;;;;;;;;;5030583;28;20181;-78
2021/12/22 08:33:30;;;;;;;31.90;17.13;;;;;;;;;;5028476;28;20196;-78
2021/12/22 08:38:50;;;;;;;31.43;16.00;;;;;;;;;;5046795;28;20212;-78
2021/12/22 08:41:15;;;;;;;29.20;15.93;;;;;;;;;;5031803;28;20174;-79
2021/12/22 08:43:40;;;;;;;33.87;17.10;;;;;;;;;;5009703;28;20231;-79
2021/12/22 08:46:06;;;;;;;29.63;15.23;;;;;;;;;;5006917;28;20172;-78
2021/12/22 08:48:31;;;;;;;22.27;12.97;;;;;;;;;;5006122;28;20295;-78
2021/12/22 08:50:56;;;;;;;28.43;17.67;;;;;;;;;;5005799;28;20211;-78
2021/12/22 08:53:21;;;;;;;30.93;16.90;;;;;;;;;;5004964;28;20198;-78
2021/12/22 08:55:46;;;;;;;27.13;15.20;;;;;;;;;;5010953;28;20171;-78
2021/12/22 08:58:11;;;;;;;29.13;16.10;;;;;;;;;;5007401;28;20218;-78
2021/12/22 09:00:38;;;;;;;25.27;13.70;;;;;;;;;;5012653;28;20172;-78
2021/12/22 09:03:03;;;;;;;29.57;15.87;;;;;;;;;;5010422;28;20167;-78
2021/12/22 09:05:29;;;;;;;27.77;14.33;;;;;;;;;;5009609;28;20187;-78
2021/12/22 09:07:54;;;;;;;24.20;14.83;;;;;;;;;;5013052;28;20183;-78
2021/12/22 09:10:19;;;;;;;29.20;14.67;;;;;;;;;;5014163;28;20183;-78
2021/12/22 09:12:44;;;;;;;23.63;14.30;;;;;;;;;;5011027;28;20172;-78
2021/12/22 09:15:10;;;;;;;27.80;14.40;;;;;;;;;;5004817;28;20172;-78
2021/12/22 09:17:35;;;;;;;29.40;16.47;;;;;;;;;;5011660;28;20199;-78
2021/12/22 09:20:00;;;;;;;30.73;17.37;;;;;;;;;;5012169;28;20184;-78
2021/12/22 09:22:26;;;;;;;29.73;17.70;;;;;;;;;;5008283;28;20251;-78
2021/12/22 09:24:52;;;;;;;21.13;12.43;;;;;;;;;;5011499;28;20183;-78
2021/12/22 09:27:17;;;;;;;26.73;15.07;;;;;;;;;;5010049;28;20326;-78
2021/12/22 09:29:42;;;;;;;24.87;14.07;;;;;;;;;;5011193;28;20187;-78
2021/12/22 09:32:08;;;;;;;22.70;14.67;;;;;;;;;;5011258;28;20184;-78
2021/12/22 09:34:34;;;;;;;28.73;15.50;;;;;;;;;;5011800;28;20184;-77
2021/12/22 09:36:59;;;;;;;28.30;17.40;;;;;;;;;;5008766;28;20269;-78
2021/12/22 09:39:24;;;;;;;23.00;14.17;;;;;;;;;;5010720;28;20176;-78
2021/12/22 09:41:50;;;;;;;23.50;14.20;;;;;;;;;;5013286;28;20175;-78
2021/12/22 09:44:15;;;;;;;22.13;12.90;;;;;;;;;;5044137;28;20182;-78
2021/12/22 09:46:41;;;;;;;25.27;15.00;;;;;;;;;;5035089;28;20178;-78
2021/12/22 09:49:19;;;;;;;20.37;12.73;;;;;;;;;;5029567;28;20174;-78
2021/12/22 09:54:29;;;;;;;20.13;13.87;;;;;;;;;;5049190;28;20259;-76
2021/12/22 09:56:54;;;;;;;20.03;12.80;;;;;;;;;;5033607;28;20215;-76
2021/12/22 09:59:20;;;;;;;17.17;10.90;;;;;;;;;;5035166;28;20481;-76
2021/12/22 10:01:45;;;;;;;21.33;11.93;;;;;;;;;;5023912;28;20189;-76
2021/12/22 10:04:16;;;;;;;22.93;12.30;;;;;;;;;;5031697;28;20186;-76
2021/12/22 10:06:41;;;;;;;21.40;13.03;;;;;;;;;;5032066;28;20189;-76
2021/12/22 10:09:07;;;;;;;21.20;13.90;;;;;;;;;;5041516;28;20170;-76
2021/12/22 10:11:33;;;;;;;20.67;12.57;;;;;;;;;;5033020;28;20183;-76
2021/12/22 10:13:58;;;;;;;19.63;11.80;;;;;;;;;;5034980;28;20180;-76
2021/12/22 10:16:24;;;;;;;21.00;11.90;;;;;;;;;;5045661;28;20174;-76
2021/12/22 10:19:05;;;;;;;21.73;14.37;;;;;;;;;;5031585;28;20204;-76
2021/12/22 10:21:33;;;;;;;23.33;12.70;;;;;;;;;;5028343;28;20307;-76
2021/12/22 10:24:00;;;;;;;22.53;13.27;;;;;;;;;;5032419;28;20174;-76
2021/12/22 10:26:27;;;;;;;22.40;12.70;;;;;;;;;;5044564;28;20179;-76
2021/12/22 10:28:57;;;;;;;25.93;14.50;;;;;;;;;;5031420;28;20289;-76
2021/12/22 10:31:41;;;;;;;19.97;11.93;;;;;;;;;;5036703;28;20185;-75
2021/12/22 10:34:09;;;;;;;18.70;12.63;;;;;;;;;;5048162;28;20178;-76
2021/12/22 10:36:43;;;;;;;20.60;11.80;;;;;;;;;;5030916;28;20182;-76
2021/12/22 10:39:15;;;;;;;22.63;13.53;;;;;;;;;;5029468;28;20226;-75
2021/12/22 10:41:40;;;;;;;25.23;16.33;;;;;;;;;;5043889;28;20186;-77
2021/12/22 10:44:07;;;;;;;21.67;13.90;;;;;;;;;;5006257;28;20235;-76
2021/12/22 10:46:35;;;;;;;28.20;15.63;;;;;;;;;;5004743;28;20180;-76
2021/12/22 10:49:14;;;;;;;23.50;14.40;;;;;;;;;;5011220;28;20183;-77
2021/12/22 10:51:42;;;;;;;23.30;13.23;;;;;;;;;;5015352;28;20233;-77
2021/12/22 10:54:09;;;;;;;21.17;10.87;;;;;;;;;;5007756;28;20171;-77
2021/12/22 10:56:38;;;;;;;27.33;15.80;;;;;;;;;;5003610;28;20262;-77
2021/12/22 10:59:13;;;;;;;24.87;13.70;;;;;;;;;;5018794;28;20180;-76
2021/12/22 11:01:54;;;;;;;19.33;14.10;;;;;;;;;;5004589;28;20179;-77
2021/12/22 11:04:26;;;;;;;23.37;15.60;;;;;;;;;;5011050;28;20172;-77
2021/12/22 11:06:54;;;;;;;20.10;13.50;;;;;;;;;;5007769;28;20191;-77
2021/12/22 11:09:20;;;;;;;21.63;13.27;;;;;;;;;;5011943;28;20190;-77
2021/12/22 11:11:47;;;;;;;23.23;13.47;;;;;;;;;;5009208;28;20191;-77
2021/12/22 11:14:17;;;;;;;22.30;13.83;;;;;;;;;;5020226;28;20187;-76
2021/12/22 11:16:50;;;;;;;21.93;14.07;;;;;;;;;;5005023;28;20614;-76
2021/12/22 11:19:15;;;;;;;25.13;15.00;;;;;;;;;;5008068;28;20175;-76
2021/12/22 11:22:01;;;;;;;26.23;14.50;;;;;;;;;;5009830;28;20186;-76
2021/12/22 11:24:27;;;;;;;21.17;13.23;;;;;;;;;;5010528;28;20171;-76
2021/12/22 11:26:52;;;;;;;26.33;16.57;;;;;;;;;;5009484;28;20354;-76
2021/12/22 11:29:18;;;;;;;28.63;16.83;;;;;;;;;;5009092;28;20175;-75
2021/12/22 11:31:43;;;;;;;26.10;15.67;;;;;;;;;;5011848;28;20205;-76
2021/12/22 11:34:09;;;;;;;20.87;14.03;;;;;;;;;;5009127;28;20201;-75
2021/12/22 11:36:35;;;;;;;25.03;14.97;;;;;;;;;;5009016;28;20179;-76
2021/12/22 11:39:00;;;;;;;25.27;16.50;;;;;;;;;;5006702;28;20195;-76
2021/12/22 11:41:27;;;;;;;24.37;14.47;;;;;;;;;;5010062;28;20195;-75
2021/12/22 11:43:53;;;;;;;38.10;23.43;;;;;;;;;;5043937;28;20263;-76
2021/12/22 11:46:18;;;;;;;36.60;22.83;;;;;;;;;;5029841;28;20182;-76
2021/12/22 11:48:48;;;;;;;26.10;16.03;;;;;;;;;;5032453;28;20178;-76
2021/12/22 11:51:26;;;;;;;21.50;13.77;;;;;;;;;;5047372;28;20185;-76
2021/12/22 11:53:53;;;;;;;25.20;15.70;;;;;;;;;;5028961;28;20190;-76
2021/12/22 11:56:33;;;;;;;21.83;13.70;;;;;;;;;;5031466;28;20269;-76
2021/12/22 11:58:58;;;;;;;25.93;15.87;;;;;;;;;;5030557;28;20181;-76
2021/12/22 12:01:24;;;;;;;23.83;15.10;;;;;;;;;;5030006;28;20179;-76
2021/12/22 12:03:49;;;;;;;23.83;15.87;;;;;;;;;;5030001;28;20185;-76
2021/12/22 12:06:16;;;;;;;23.97;16.17;;;;;;;;;;5031355;28;20174;-76
2021/12/22 12:08:45;;;;;;;27.77;15.60;;;;;;;;;;5032606;28;20224;-76
2021/12/22 12:11:12;;;;;;;23.57;14.03;;;;;;;;;;5039075;28;20182;-76
2021/12/22 12:13:53;;;;;;;22.63;15.33;;;;;;;;;;5031767;28;20177;-76
2021/12/22 12:21:52;;;;;;;23.87;15.93;;;;;;;;;;5045538;28;20255;-76
2021/12/22 12:24:39;;;;;;;25.90;15.27;;;;;;;;;;5032358;28;20204;-76
2021/12/22 12:27:23;;;;;;;23.67;14.43;;;;;;;;;;5027340;28;20209;-76
2021/12/22 12:29:58;;;;;;;20.70;14.60;;;;;;;;;;5036634;28;20198;-76
2021/12/22 12:32:38;;;;;;;24.27;16.50;;;;;;;;;;5034290;28;20185;-76
2021/12/22 12:35:33;;;;;;;27.30;15.27;;;;;;;;;;5030231;28;20185;-76
2021/12/22 12:38:00;;;;;;;27.83;16.73;;;;;;;;;;5023962;28;20209;-76
2021/12/22 12:40:44;;;;;;;23.77;15.40;;;;;;;;;;5031828;28;20216;-76
2021/12/22 12:43:09;;;;;;;24.57;15.17;;;;;;;;;;5044655;28;20232;-76
2021/12/22 12:45:42;;;;;;;23.50;14.73;;;;;;;;;;5032412;28;20182;-76
2021/12/22 12:48:26;;;;;;;22.70;14.90;;;;;;;;;;5025287;28;20185;-76
2021/12/22 12:51:10;;;;;;;31.57;16.97;;;;;;;;;;5049537;28;20225;-76
2021/12/22 12:53:39;;;;;;;23.27;14.57;;;;;;;;;;5047136;28;20181;-76
2021/12/22 12:56:07;;;;;;;25.40;15.10;;;;;;;;;;5049808;28;20189;-76
2021/12/22 12:58:33;;;;;;;26.37;15.93;;;;;;;;;;5034337;28;20259;-75
2021/12/22 13:00:58;;;;;;;26.73;16.40;;;;;;;;;;5033573;28;20209;-76
2021/12/22 13:03:23;;;;;;;24.80;15.20;;;;;;;;;;5032634;28;20189;-75
2021/12/22 13:05:48;;;;;;;26.70;15.73;;;;;;;;;;5030661;28;20171;-76
2021/12/22 13:08:14;;;;;;;27.27;17.33;;;;;;;;;;5044274;28;20198;-75
2021/12/22 13:10:42;;;;;;;26.53;17.07;;;;;;;;;;5031973;28;20189;-75
2021/12/22 13:13:15;;;;;;;22.33;15.50;;;;;;;;;;5047154;28;20489;-76
2021/12/22 13:15:49;;;;;;;24.77;15.37;;;;;;;;;;5036860;28;20227;-75
2021/12/22 13:18:17;;;;;;;23.60;15.70;;;;;;;;;;5030702;28;20194;-75
2021/12/22 13:20:43;;;;;;;29.83;18.77;;;;;;;;;;5031079;28;20170;-75
2021/12/22 13:23:10;;;;;;;28.40;17.47;;;;;;;;;;5050870;28;20208;-75
2021/12/22 13:25:36;;;;;;;28.67;19.97;;;;;;;;;;5031987;28;20555;-75
2021/12/22 13:28:13;;;;;;;26.03;16.13;;;;;;;;;;5048727;28;20268;-75
2021/12/22 13:30:46;;;;;;;30.40;18.37;;;;;;;;;;5034190;28;20167;-75
2021/12/22 13:33:11;;;;;;;30.47;20.00;;;;;;;;;;5037938;28;20178;-75
2021/12/22 13:35:40;;;;;;;42.50;24.60;;;;;;;;;;5034791;28;20315;-75
2021/12/22 13:38:18;;;;;;;34.90;19.70;;;;;;;;;;5039000;28;20225;-75
2021/12/22 13:40:49;;;;;;;51.07;27.63;;;;;;;;;;5031533;28;20261;-75
2021/12/22 13:43:29;;;;;;;51.47;27.77;;;;;;;;;;5029238;28;20222;-75
2021/12/22 13:45:56;;;;;;;26.47;16.57;;;;;;;;;;5030396;28;20183;-74
2021/12/22 13:48:26;;;;;;;28.10;16.93;;;;;;;;;;5027562;28;20241;-75
2021/12/22 13:50:52;;;;;;;29.23;20.13;;;;;;;;;;5034304;28;20265;-75
2021/12/22 13:53:18;;;;;;;29.50;17.73;;;;;;;;;;5027148;28;20274;-75
2021/12/22 13:55:46;;;;;;;26.67;16.97;;;;;;;;;;5029593;28;20196;-75
2021/12/22 13:58:31;;;;;;;24.07;16.23;;;;;;;;;;5031912;28;20233;-75
2021/12/22 14:01:09;;;;;;;28.20;17.43;;;;;;;;;;5030769;28;20197;-75
2021/12/22 14:03:35;;;;;;;31.43;19.00;;;;;;;;;;5029113;28;20186;-75
2021/12/22 14:06:07;;;;;;;30.53;19.97;;;;;;;;;;5032517;28;20187;-75
2021/12/22 14:08:33;;;;;;;24.53;17.30;;;;;;;;;;5027905;28;20215;-75
2021/12/22 14:10:58;;;;;;;27.83;17.57;;;;;;;;;;5026590;28;20198;-75
2021/12/22 14:13:29;;;;;;;23.67;16.57;;;;;;;;;;5030976;28;20183;-75
2021/12/22 14:15:55;;;;;;;25.80;16.90;;;;;;;;;;5029362;28;20194;-75
2021/12/22 14:18:21;;;;;;;26.47;17.60;;;;;;;;;;5030708;28;20202;-75
2021/12/22 14:20:46;;;;;;;27.57;17.73;;;;;;;;;;5028884;28;20229;-75
2021/12/22 14:23:11;;;;;;;29.07;18.17;;;;;;;;;;5030886;28;20259;-75
2021/12/22 14:25:39;;;;;;;27.23;17.53;;;;;;;;;;5029701;28;20515;-75
2021/12/22 14:28:22;;;;;;;24.50;17.13;;;;;;;;;;5029707;28;20596;-75
2021/12/22 14:30:48;;;;;;;26.87;17.50;;;;;;;;;;5028220;28;20213;-75
2021/12/22 14:33:14;;;;;;;26.03;16.73;;;;;;;;;;5028266;28;20225;-75
2021/12/22 14:35:41;;;;;;;30.30;20.10;;;;;;;;;;5024382;28;20193;-75
2021/12/22 14:38:10;;;;;;;27.33;17.03;;;;;;;;;;5028408;28;20267;-75
2021/12/22 14:40:38;;;;;;;28.10;17.80;;;;;;;;;;5023935;28;20613;-75